sensor_id;sensor_type;location;lat;lon;timestamp;P1;durP1;ratioP1;P2;durP2;ratioP2
8887;SDS011;4480;52.370;9.748;2023-08-06T00:00:37;10.17;;;8.93;;
8887;SDS011;4480;52.370;9.748;2023-08-06T00:03:04;13.23;;;9.30;;
8887;SDS011;4480;52.370;9.748;2023-08-06T00:05:32;11.03;;;8.70;;
8887;SDS011;4480;52.370;9.748;2023-08-06T00:07:59;10.00;;;8.80;;
8887;SDS011;4480;52.370;9.748;2023-08-06T00:10:26;8.87;;;7.13;;
8887;SDS011;4480;52.370;9.748;2023-08-06T00:12:52;8.20;;;7.23;;
8887;SDS011;4480;52.370;9.748;2023-08-06T00:15:19;8.93;;;6.87;;
8887;SDS011;4480;52.370;9.748;2023-08-06T00:17:46;9.13;;;6.40;;
8887;SDS011;4480;52.370;9.748;2023-08-06T00:20:13;7.83;;;7.03;;
8887;SDS011;4480;52.370;9.748;2023-08-06T00:22:41;7.87;;;7.07;;
8887;SDS011;4480;52.370;9.748;2023-08-06T00:25:08;7.90;;;6.70;;
8887;SDS011;4480;52.370;9.748;2023-08-06T00:27:35;6.00;;;5.40;;
8887;SDS011;4480;52.370;9.748;2023-08-06T00:30:02;7.20;;;6.50;;
8887;SDS011;4480;52.370;9.748;2023-08-06T00:32:29;8.00;;;6.57;;
8887;SDS011;4480;52.370;9.748;2023-08-06T00:34:56;7.50;;;6.80;;
8887;SDS011;4480;52.370;9.748;2023-08-06T00:37:23;8.33;;;6.60;;
8887;SDS011;4480;52.370;9.748;2023-08-06T00:39:51;9.80;;;7.70;;
8887;SDS011;4480;52.370;9.748;2023-08-06T00:42:18;9.50;;;6.80;;
8887;SDS011;4480;52.370;9.748;2023-08-06T00:44:45;7.60;;;6.43;;
8887;SDS011;4480;52.370;9.748;2023-08-06T00:47:12;9.23;;;7.30;;
8887;SDS011;4480;52.370;9.748;2023-08-06T00:49:40;12.50;;;8.40;;
8887;SDS011;4480;52.370;9.748;2023-08-06T00:52:07;9.53;;;7.53;;
8887;SDS011;4480;52.370;9.748;2023-08-06T00:54:34;10.37;;;8.23;;
8887;SDS011;4480;52.370;9.748;2023-08-06T00:57:03;12.90;;;8.40;;
8887;SDS011;4480;52.370;9.748;2023-08-06T00:59:33;10.10;;;7.63;;
8887;SDS011;4480;52.370;9.748;2023-08-06T01:02:00;10.07;;;8.43;;
8887;SDS011;4480;52.370;9.748;2023-08-06T01:04:27;12.33;;;9.17;;
8887;SDS011;4480;52.370;9.748;2023-08-06T01:06:56;10.80;;;9.30;;
8887;SDS011;4480;52.370;9.748;2023-08-06T01:09:31;10.80;;;9.70;;
8887;SDS011;4480;52.370;9.748;2023-08-06T01:12:09;11.60;;;10.40;;
8887;SDS011;4480;52.370;9.748;2023-08-06T01:14:46;19.03;;;9.90;;
8887;SDS011;4480;52.370;9.748;2023-08-06T01:17:20;11.30;;;9.10;;
8887;SDS011;4480;52.370;9.748;2023-08-06T01:19:47;10.97;;;9.87;;
8887;SDS011;4480;52.370;9.748;2023-08-06T01:22:15;10.60;;;9.50;;
8887;SDS011;4480;52.370;9.748;2023-08-06T01:24:41;14.30;;;11.00;;
8887;SDS011;4480;52.370;9.748;2023-08-06T01:27:14;13.50;;;11.00;;
8887;SDS011;4480;52.370;9.748;2023-08-06T01:29:48;12.50;;;9.50;;
8887;SDS011;4480;52.370;9.748;2023-08-06T01:32:23;13.30;;;11.10;;
8887;SDS011;4480;52.370;9.748;2023-08-06T01:34:51;15.10;;;12.00;;
8887;SDS011;4480;52.370;9.748;2023-08-06T01:37:22;12.03;;;10.03;;
8887;SDS011;4480;52.370;9.748;2023-08-06T01:39:49;14.97;;;11.10;;
8887;SDS011;4480;52.370;9.748;2023-08-06T01:42:16;14.60;;;10.93;;
8887;SDS011;4480;52.370;9.748;2023-08-06T01:44:43;14.57;;;11.23;;
8887;SDS011;4480;52.370;9.748;2023-08-06T01:47:09;13.50;;;11.20;;
8887;SDS011;4480;52.370;9.748;2023-08-06T01:49:36;16.10;;;11.77;;
8887;SDS011;4480;52.370;9.748;2023-08-06T01:52:03;14.97;;;12.13;;
8887;SDS011;4480;52.370;9.748;2023-08-06T01:54:32;14.13;;;11.70;;
8887;SDS011;4480;52.370;9.748;2023-08-06T01:56:59;15.77;;;11.63;;
8887;SDS011;4480;52.370;9.748;2023-08-06T01:59:25;13.00;;;10.87;;
8887;SDS011;4480;52.370;9.748;2023-08-06T02:01:52;16.67;;;11.90;;
8887;SDS011;4480;52.370;9.748;2023-08-06T02:04:19;14.77;;;11.90;;
8887;SDS011;4480;52.370;9.748;2023-08-06T02:06:46;15.97;;;11.73;;
8887;SDS011;4480;52.370;9.748;2023-08-06T02:09:13;16.70;;;11.70;;
8887;SDS011;4480;52.370;9.748;2023-08-06T02:11:41;16.37;;;12.07;;
8887;SDS011;4480;52.370;9.748;2023-08-06T02:14:07;16.20;;;11.63;;
8887;SDS011;4480;52.370;9.748;2023-08-06T02:16:34;16.30;;;11.97;;
8887;SDS011;4480;52.370;9.748;2023-08-06T02:19:01;15.03;;;11.70;;
8887;SDS011;4480;52.370;9.748;2023-08-06T02:21:28;18.00;;;13.30;;
8887;SDS011;4480;52.370;9.748;2023-08-06T02:23:55;18.07;;;12.43;;
8887;SDS011;4480;52.370;9.748;2023-08-06T02:26:21;17.87;;;13.27;;
8887;SDS011;4480;52.370;9.748;2023-08-06T02:28:50;17.17;;;11.93;;
8887;SDS011;4480;52.370;9.748;2023-08-06T02:31:16;16.70;;;11.60;;
8887;SDS011;4480;52.370;9.748;2023-08-06T02:33:43;17.07;;;11.73;;
8887;SDS011;4480;52.370;9.748;2023-08-06T02:36:10;16.57;;;11.20;;
8887;SDS011;4480;52.370;9.748;2023-08-06T02:38:37;18.73;;;13.37;;
8887;SDS011;4480;52.370;9.748;2023-08-06T02:41:04;17.13;;;13.43;;
8887;SDS011;4480;52.370;9.748;2023-08-06T02:43:31;19.10;;;12.30;;
8887;SDS011;4480;52.370;9.748;2023-08-06T02:45:59;20.90;;;12.43;;
8887;SDS011;4480;52.370;9.748;2023-08-06T02:48:27;16.33;;;12.37;;
8887;SDS011;4480;52.370;9.748;2023-08-06T02:50:56;18.17;;;12.30;;
8887;SDS011;4480;52.370;9.748;2023-08-06T02:53:24;20.40;;;12.57;;
8887;SDS011;4480;52.370;9.748;2023-08-06T02:55:50;17.47;;;12.53;;
8887;SDS011;4480;52.370;9.748;2023-08-06T02:58:17;22.50;;;13.50;;
8887;SDS011;4480;52.370;9.748;2023-08-06T03:00:47;17.87;;;12.37;;
8887;SDS011;4480;52.370;9.748;2023-08-06T03:03:28;21.80;;;13.37;;
8887;SDS011;4480;52.370;9.748;2023-08-06T03:05:55;21.20;;;13.53;;
8887;SDS011;4480;52.370;9.748;2023-08-06T03:08:22;21.10;;;12.50;;
8887;SDS011;4480;52.370;9.748;2023-08-06T03:10:49;20.30;;;14.67;;
8887;SDS011;4480;52.370;9.748;2023-08-06T03:13:17;17.30;;;12.93;;
8887;SDS011;4480;52.370;9.748;2023-08-06T03:15:44;21.00;;;13.53;;
8887;SDS011;4480;52.370;9.748;2023-08-06T03:18:19;18.43;;;12.97;;
8887;SDS011;4480;52.370;9.748;2023-08-06T03:20:47;21.10;;;13.60;;
8887;SDS011;4480;52.370;9.748;2023-08-06T03:23:14;23.33;;;13.83;;
8887;SDS011;4480;52.370;9.748;2023-08-06T03:25:40;19.33;;;13.27;;
8887;SDS011;4480;52.370;9.748;2023-08-06T03:28:07;21.70;;;12.70;;
8887;SDS011;4480;52.370;9.748;2023-08-06T03:30:34;21.17;;;13.83;;
8887;SDS011;4480;52.370;9.748;2023-08-06T03:33:01;21.53;;;13.07;;
8887;SDS011;4480;52.370;9.748;2023-08-06T03:35:29;18.97;;;12.70;;
8887;SDS011;4480;52.370;9.748;2023-08-06T03:37:56;20.80;;;13.10;;
8887;SDS011;4480;52.370;9.748;2023-08-06T03:40:22;21.40;;;12.57;;
8887;SDS011;4480;52.370;9.748;2023-08-06T03:42:49;17.93;;;13.37;;
8887;SDS011;4480;52.370;9.748;2023-08-06T03:45:16;19.87;;;13.70;;
8887;SDS011;4480;52.370;9.748;2023-08-06T03:47:43;20.73;;;14.17;;
8887;SDS011;4480;52.370;9.748;2023-08-06T03:50:10;22.83;;;14.20;;
8887;SDS011;4480;52.370;9.748;2023-08-06T03:52:38;22.00;;;14.40;;
8887;SDS011;4480;52.370;9.748;2023-08-06T03:55:04;23.43;;;14.47;;
8887;SDS011;4480;52.370;9.748;2023-08-06T03:57:32;24.30;;;15.50;;
8887;SDS011;4480;52.370;9.748;2023-08-06T03:59:58;21.27;;;13.77;;
8887;SDS011;4480;52.370;9.748;2023-08-06T04:02:25;22.70;;;14.57;;
8887;SDS011;4480;52.370;9.748;2023-08-06T04:04:52;23.33;;;14.20;;
8887;SDS011;4480;52.370;9.748;2023-08-06T04:07:19;24.27;;;15.10;;
8887;SDS011;4480;52.370;9.748;2023-08-06T04:12:03;24.50;;;14.63;;
8887;SDS011;4480;52.370;9.748;2023-08-06T04:14:31;28.23;;;16.30;;
8887;SDS011;4480;52.370;9.748;2023-08-06T04:16:57;21.50;;;14.60;;
8887;SDS011;4480;52.370;9.748;2023-08-06T04:19:24;23.03;;;13.80;;
8887;SDS011;4480;52.370;9.748;2023-08-06T04:21:51;26.03;;;14.53;;
8887;SDS011;4480;52.370;9.748;2023-08-06T04:24:18;25.10;;;15.53;;
8887;SDS011;4480;52.370;9.748;2023-08-06T04:26:44;25.60;;;15.57;;
8887;SDS011;4480;52.370;9.748;2023-08-06T04:29:12;30.37;;;15.30;;
8887;SDS011;4480;52.370;9.748;2023-08-06T04:31:39;27.50;;;15.70;;
8887;SDS011;4480;52.370;9.748;2023-08-06T04:34:06;21.73;;;13.70;;
8887;SDS011;4480;52.370;9.748;2023-08-06T04:36:34;21.37;;;13.57;;
8887;SDS011;4480;52.370;9.748;2023-08-06T04:39:01;21.77;;;15.10;;
8887;SDS011;4480;52.370;9.748;2023-08-06T04:41:27;27.67;;;15.40;;
8887;SDS011;4480;52.370;9.748;2023-08-06T04:43:54;22.70;;;13.47;;
8887;SDS011;4480;52.370;9.748;2023-08-06T04:46:23;25.40;;;14.53;;
8887;SDS011;4480;52.370;9.748;2023-08-06T04:48:50;23.73;;;14.97;;
8887;SDS011;4480;52.370;9.748;2023-08-06T04:51:17;21.47;;;14.13;;
8887;SDS011;4480;52.370;9.748;2023-08-06T04:53:44;22.60;;;14.87;;
8887;SDS011;4480;52.370;9.748;2023-08-06T04:56:10;22.70;;;13.77;;
8887;SDS011;4480;52.370;9.748;2023-08-06T04:58:37;20.77;;;13.53;;
8887;SDS011;4480;52.370;9.748;2023-08-06T05:01:04;21.53;;;13.93;;
8887;SDS011;4480;52.370;9.748;2023-08-06T05:03:32;19.33;;;13.67;;
8887;SDS011;4480;52.370;9.748;2023-08-06T05:05:59;20.07;;;13.70;;
8887;SDS011;4480;52.370;9.748;2023-08-06T05:08:26;19.90;;;13.80;;
8887;SDS011;4480;52.370;9.748;2023-08-06T05:10:52;18.70;;;14.17;;
8887;SDS011;4480;52.370;9.748;2023-08-06T05:13:19;15.50;;;11.77;;
8887;SDS011;4480;52.370;9.748;2023-08-06T05:15:46;17.23;;;11.80;;
8887;SDS011;4480;52.370;9.748;2023-08-06T05:18:13;17.20;;;13.47;;
8887;SDS011;4480;52.370;9.748;2023-08-06T05:20:41;18.10;;;12.40;;
8887;SDS011;4480;52.370;9.748;2023-08-06T05:23:08;15.97;;;11.70;;
8887;SDS011;4480;52.370;9.748;2023-08-06T05:25:35;14.97;;;11.10;;
8887;SDS011;4480;52.370;9.748;2023-08-06T05:28:02;16.90;;;11.97;;
8887;SDS011;4480;52.370;9.748;2023-08-06T05:30:29;13.83;;;11.30;;
8887;SDS011;4480;52.370;9.748;2023-08-06T05:32:56;18.53;;;11.03;;
8887;SDS011;4480;52.370;9.748;2023-08-06T05:35:23;14.60;;;11.37;;
8887;SDS011;4480;52.370;9.748;2023-08-06T05:37:52;15.70;;;10.80;;
8887;SDS011;4480;52.370;9.748;2023-08-06T05:40:19;11.70;;;8.70;;
8887;SDS011;4480;52.370;9.748;2023-08-06T05:42:46;10.47;;;9.03;;
8887;SDS011;4480;52.370;9.748;2023-08-06T05:45:13;11.33;;;8.33;;
8887;SDS011;4480;52.370;9.748;2023-08-06T05:47:40;10.03;;;8.00;;
8887;SDS011;4480;52.370;9.748;2023-08-06T05:50:07;8.60;;;7.70;;
8887;SDS011;4480;52.370;9.748;2023-08-06T05:52:35;12.20;;;7.13;;
8887;SDS011;4480;52.370;9.748;2023-08-06T05:55:03;9.70;;;7.97;;
8887;SDS011;4480;52.370;9.748;2023-08-06T05:57:30;7.93;;;7.00;;
8887;SDS011;4480;52.370;9.748;2023-08-06T05:59:57;7.97;;;6.80;;
8887;SDS011;4480;52.370;9.748;2023-08-06T06:02:24;7.27;;;6.57;;
8887;SDS011;4480;52.370;9.748;2023-08-06T06:04:50;7.77;;;6.10;;
8887;SDS011;4480;52.370;9.748;2023-08-06T06:07:17;8.30;;;6.00;;
8887;SDS011;4480;52.370;9.748;2023-08-06T06:09:44;7.00;;;6.30;;
8887;SDS011;4480;52.370;9.748;2023-08-06T06:12:12;7.77;;;5.73;;
8887;SDS011;4480;52.370;9.748;2023-08-06T06:14:39;5.90;;;5.37;;
8887;SDS011;4480;52.370;9.748;2023-08-06T06:17:06;6.07;;;5.47;;
8887;SDS011;4480;52.370;9.748;2023-08-06T06:19:32;8.13;;;5.00;;
8887;SDS011;4480;52.370;9.748;2023-08-06T06:21:59;5.50;;;5.00;;
8887;SDS011;4480;52.370;9.748;2023-08-06T06:24:26;4.77;;;4.00;;
8887;SDS011;4480;52.370;9.748;2023-08-06T06:26:53;4.13;;;3.73;;
8887;SDS011;4480;52.370;9.748;2023-08-06T06:29:21;5.53;;;4.33;;
8887;SDS011;4480;52.370;9.748;2023-08-06T06:31:47;4.43;;;4.03;;
8887;SDS011;4480;52.370;9.748;2023-08-06T06:34:14;5.00;;;3.93;;
8887;SDS011;4480;52.370;9.748;2023-08-06T06:36:41;4.53;;;3.93;;
8887;SDS011;4480;52.370;9.748;2023-08-06T06:39:08;4.60;;;4.20;;
8887;SDS011;4480;52.370;9.748;2023-08-06T06:41:34;3.83;;;3.53;;
8887;SDS011;4480;52.370;9.748;2023-08-06T06:44:01;4.37;;;3.60;;
8887;SDS011;4480;52.370;9.748;2023-08-06T06:46:29;5.00;;;4.27;;
8887;SDS011;4480;52.370;9.748;2023-08-06T06:48:56;3.37;;;2.90;;
8887;SDS011;4480;52.370;9.748;2023-08-06T06:51:23;3.93;;;3.00;;
8887;SDS011;4480;52.370;9.748;2023-08-06T06:53:50;3.07;;;2.77;;
8887;SDS011;4480;52.370;9.748;2023-08-06T06:56:16;5.20;;;3.47;;
8887;SDS011;4480;52.370;9.748;2023-08-06T06:58:43;5.40;;;4.40;;
8887;SDS011;4480;52.370;9.748;2023-08-06T07:01:10;6.43;;;4.57;;
8887;SDS011;4480;52.370;9.748;2023-08-06T07:03:38;4.27;;;3.30;;
8887;SDS011;4480;52.370;9.748;2023-08-06T07:06:06;4.37;;;3.27;;
8887;SDS011;4480;52.370;9.748;2023-08-06T07:08:33;3.07;;;2.80;;
8887;SDS011;4480;52.370;9.748;2023-08-06T07:11:00;2.80;;;2.60;;
8887;SDS011;4480;52.370;9.748;2023-08-06T07:13:27;6.00;;;3.10;;
8887;SDS011;4480;52.370;9.748;2023-08-06T07:15:54;3.77;;;3.27;;
8887;SDS011;4480;52.370;9.748;2023-08-06T07:18:21;3.50;;;3.17;;
8887;SDS011;4480;52.370;9.748;2023-08-06T07:20:50;2.97;;;2.63;;
8887;SDS011;4480;52.370;9.748;2023-08-06T07:23:17;3.70;;;2.70;;
8887;SDS011;4480;52.370;9.748;2023-08-06T07:25:44;3.10;;;2.73;;
8887;SDS011;4480;52.370;9.748;2023-08-06T07:28:12;2.53;;;2.33;;
8887;SDS011;4480;52.370;9.748;2023-08-06T07:30:39;2.77;;;2.57;;
8887;SDS011;4480;52.370;9.748;2023-08-06T07:33:06;2.60;;;2.40;;
8887;SDS011;4480;52.370;9.748;2023-08-06T07:35:33;3.30;;;2.73;;
8887;SDS011;4480;52.370;9.748;2023-08-06T07:38:02;2.70;;;2.40;;
8887;SDS011;4480;52.370;9.748;2023-08-06T07:40:29;2.73;;;2.40;;
8887;SDS011;4480;52.370;9.748;2023-08-06T07:42:56;2.60;;;2.40;;
8887;SDS011;4480;52.370;9.748;2023-08-06T07:45:23;3.23;;;2.93;;
8887;SDS011;4480;52.370;9.748;2023-08-06T07:47:51;3.70;;;2.60;;
8887;SDS011;4480;52.370;9.748;2023-08-06T07:50:18;3.53;;;2.60;;
8887;SDS011;4480;52.370;9.748;2023-08-06T07:52:45;7.10;;;3.20;;
8887;SDS011;4480;52.370;9.748;2023-08-06T07:55:13;3.20;;;2.60;;
8887;SDS011;4480;52.370;9.748;2023-08-06T07:57:40;2.63;;;2.40;;
8887;SDS011;4480;52.370;9.748;2023-08-06T08:00:07;3.77;;;1.93;;
8887;SDS011;4480;52.370;9.748;2023-08-06T08:02:35;4.50;;;2.10;;
8887;SDS011;4480;52.370;9.748;2023-08-06T08:05:02;4.97;;;2.00;;
8887;SDS011;4480;52.370;9.748;2023-08-06T08:07:29;5.57;;;2.33;;
8887;SDS011;4480;52.370;9.748;2023-08-06T08:09:56;3.60;;;1.77;;
8887;SDS011;4480;52.370;9.748;2023-08-06T08:12:24;3.60;;;1.70;;
8887;SDS011;4480;52.370;9.748;2023-08-06T08:14:51;3.70;;;2.93;;
8887;SDS011;4480;52.370;9.748;2023-08-06T08:17:18;2.40;;;2.20;;
8887;SDS011;4480;52.370;9.748;2023-08-06T08:19:44;2.70;;;2.50;;
8887;SDS011;4480;52.370;9.748;2023-08-06T08:22:11;1.87;;;1.77;;
8887;SDS011;4480;52.370;9.748;2023-08-06T08:24:38;2.40;;;2.20;;
8887;SDS011;4480;52.370;9.748;2023-08-06T08:27:05;2.30;;;2.10;;
8887;SDS011;4480;52.370;9.748;2023-08-06T08:29:33;2.00;;;1.80;;
8887;SDS011;4480;52.370;9.748;2023-08-06T08:32:00;2.30;;;2.10;;
8887;SDS011;4480;52.370;9.748;2023-08-06T08:34:26;4.97;;;1.83;;
8887;SDS011;4480;52.370;9.748;2023-08-06T08:36:53;3.43;;;2.00;;
8887;SDS011;4480;52.370;9.748;2023-08-06T08:39:20;2.33;;;1.53;;
8887;SDS011;4480;52.370;9.748;2023-08-06T08:41:47;2.43;;;2.03;;
8887;SDS011;4480;52.370;9.748;2023-08-06T08:44:13;2.87;;;2.10;;
8887;SDS011;4480;52.370;9.748;2023-08-06T08:46:44;3.40;;;2.10;;
8887;SDS011;4480;52.370;9.748;2023-08-06T08:49:12;2.90;;;2.00;;
8887;SDS011;4480;52.370;9.748;2023-08-06T08:51:39;1.93;;;1.67;;
8887;SDS011;4480;52.370;9.748;2023-08-06T08:54:07;2.23;;;2.03;;
8887;SDS011;4480;52.370;9.748;2023-08-06T08:56:34;2.43;;;2.00;;
8887;SDS011;4480;52.370;9.748;2023-08-06T08:59:01;3.20;;;1.87;;
8887;SDS011;4480;52.370;9.748;2023-08-06T09:01:28;2.20;;;2.00;;
8887;SDS011;4480;52.370;9.748;2023-08-06T09:03:56;3.03;;;1.50;;
8887;SDS011;4480;52.370;9.748;2023-08-06T09:06:25;2.90;;;2.27;;
8887;SDS011;4480;52.370;9.748;2023-08-06T09:08:56;20.70;;;2.87;;
8887;SDS011;4480;52.370;9.748;2023-08-06T09:11:28;3.90;;;1.90;;
8887;SDS011;4480;52.370;9.748;2023-08-06T09:14:04;3.73;;;2.20;;
8887;SDS011;4480;52.370;9.748;2023-08-06T09:16:33;3.47;;;2.27;;
8887;SDS011;4480;52.370;9.748;2023-08-06T09:19:07;2.73;;;2.37;;
8887;SDS011;4480;52.370;9.748;2023-08-06T09:21:36;4.73;;;3.20;;
8887;SDS011;4480;52.370;9.748;2023-08-06T09:24:06;4.53;;;2.07;;
8887;SDS011;4480;52.370;9.748;2023-08-06T09:26:35;4.17;;;2.10;;
8887;SDS011;4480;52.370;9.748;2023-08-06T09:29:04;3.63;;;2.57;;
8887;SDS011;4480;52.370;9.748;2023-08-06T09:31:32;2.50;;;1.93;;
8887;SDS011;4480;52.370;9.748;2023-08-06T09:34:00;3.10;;;2.03;;
8887;SDS011;4480;52.370;9.748;2023-08-06T09:36:28;2.77;;;2.50;;
8887;SDS011;4480;52.370;9.748;2023-08-06T09:38:55;2.20;;;2.00;;
8887;SDS011;4480;52.370;9.748;2023-08-06T09:41:26;2.57;;;2.37;;
8887;SDS011;4480;52.370;9.748;2023-08-06T09:43:53;3.07;;;2.77;;
8887;SDS011;4480;52.370;9.748;2023-08-06T09:46:20;6.53;;;2.27;;
8887;SDS011;4480;52.370;9.748;2023-08-06T09:48:47;3.13;;;2.40;;
8887;SDS011;4480;52.370;9.748;2023-08-06T09:51:16;2.57;;;2.03;;
8887;SDS011;4480;52.370;9.748;2023-08-06T09:53:44;2.23;;;2.03;;
8887;SDS011;4480;52.370;9.748;2023-08-06T09:56:13;2.03;;;1.90;;
8887;SDS011;4480;52.370;9.748;2023-08-06T09:58:43;3.00;;;2.00;;
8887;SDS011;4480;52.370;9.748;2023-08-06T10:01:13;2.47;;;2.27;;
8887;SDS011;4480;52.370;9.748;2023-08-06T10:03:41;2.00;;;1.90;;
8887;SDS011;4480;52.370;9.748;2023-08-06T10:06:09;2.80;;;2.20;;
8887;SDS011;4480;52.370;9.748;2023-08-06T10:08:37;2.67;;;2.47;;
8887;SDS011;4480;52.370;9.748;2023-08-06T10:11:07;4.27;;;2.30;;
8887;SDS011;4480;52.370;9.748;2023-08-06T10:13:35;2.20;;;2.00;;
8887;SDS011;4480;52.370;9.748;2023-08-06T10:16:03;2.50;;;1.97;;
8887;SDS011;4480;52.370;9.748;2023-08-06T10:18:31;2.20;;;2.00;;
8887;SDS011;4480;52.370;9.748;2023-08-06T10:20:59;2.43;;;2.20;;
8887;SDS011;4480;52.370;9.748;2023-08-06T10:23:32;2.60;;;2.40;;
8887;SDS011;4480;52.370;9.748;2023-08-06T10:26:00;2.70;;;2.20;;
8887;SDS011;4480;52.370;9.748;2023-08-06T10:28:35;2.37;;;2.10;;
8887;SDS011;4480;52.370;9.748;2023-08-06T10:31:03;2.90;;;2.00;;
8887;SDS011;4480;52.370;9.748;2023-08-06T10:33:40;2.90;;;1.83;;
8887;SDS011;4480;52.370;9.748;2023-08-06T10:36:08;3.60;;;2.33;;
8887;SDS011;4480;52.370;9.748;2023-08-06T10:38:36;3.23;;;2.53;;
8887;SDS011;4480;52.370;9.748;2023-08-06T10:41:14;2.73;;;2.30;;
8887;SDS011;4480;52.370;9.748;2023-08-06T10:43:43;4.13;;;2.30;;
8887;SDS011;4480;52.370;9.748;2023-08-06T10:46:21;2.43;;;2.23;;
8887;SDS011;4480;52.370;9.748;2023-08-06T10:48:49;3.50;;;2.33;;
8887;SDS011;4480;52.370;9.748;2023-08-06T10:51:16;5.87;;;4.77;;
8887;SDS011;4480;52.370;9.748;2023-08-06T10:53:44;2.50;;;2.30;;
8887;SDS011;4480;52.370;9.748;2023-08-06T10:56:11;3.63;;;3.23;;
8887;SDS011;4480;52.370;9.748;2023-08-06T10:58:39;3.23;;;2.53;;
8887;SDS011;4480;52.370;9.748;2023-08-06T11:01:08;3.13;;;2.83;;
8887;SDS011;4480;52.370;9.748;2023-08-06T11:03:35;2.40;;;2.20;;
8887;SDS011;4480;52.370;9.748;2023-08-06T11:06:02;2.50;;;2.30;;
8887;SDS011;4480;52.370;9.748;2023-08-06T11:08:32;2.63;;;2.43;;
8887;SDS011;4480;52.370;9.748;2023-08-06T11:11:07;6.27;;;2.80;;
8887;SDS011;4480;52.370;9.748;2023-08-06T11:13:35;2.60;;;2.40;;
8887;SDS011;4480;52.370;9.748;2023-08-06T11:16:03;2.50;;;2.30;;
8887;SDS011;4480;52.370;9.748;2023-08-06T11:18:31;2.20;;;1.90;;
8887;SDS011;4480;52.370;9.748;2023-08-06T11:20:59;4.27;;;2.60;;
8887;SDS011;4480;52.370;9.748;2023-08-06T11:23:26;2.13;;;2.00;;
8887;SDS011;4480;52.370;9.748;2023-08-06T11:25:54;2.37;;;2.17;;
8887;SDS011;4480;52.370;9.748;2023-08-06T11:28:21;2.27;;;2.00;;
8887;SDS011;4480;52.370;9.748;2023-08-06T11:30:48;2.20;;;2.00;;
8887;SDS011;4480;52.370;9.748;2023-08-06T11:33:19;2.80;;;1.90;;
8887;SDS011;4480;52.370;9.748;2023-08-06T11:35:48;2.80;;;2.60;;
8887;SDS011;4480;52.370;9.748;2023-08-06T11:38:15;2.60;;;2.20;;
8887;SDS011;4480;52.370;9.748;2023-08-06T11:40:43;2.30;;;2.10;;
8887;SDS011;4480;52.370;9.748;2023-08-06T11:43:10;3.40;;;2.30;;
8887;SDS011;4480;52.370;9.748;2023-08-06T11:45:38;2.20;;;2.00;;
8887;SDS011;4480;52.370;9.748;2023-08-06T11:48:05;2.80;;;1.80;;
8887;SDS011;4480;52.370;9.748;2023-08-06T11:50:36;2.00;;;1.90;;
8887;SDS011;4480;52.370;9.748;2023-08-06T11:53:05;4.03;;;2.07;;
8887;SDS011;4480;52.370;9.748;2023-08-06T11:55:32;1.60;;;1.50;;
8887;SDS011;4480;52.370;9.748;2023-08-06T11:58:02;2.37;;;2.10;;
8887;SDS011;4480;52.370;9.748;2023-08-06T12:00:30;3.37;;;2.37;;
8887;SDS011;4480;52.370;9.748;2023-08-06T12:02:57;3.70;;;2.33;;
8887;SDS011;4480;52.370;9.748;2023-08-06T12:05:28;2.63;;;2.20;;
8887;SDS011;4480;52.370;9.748;2023-08-06T12:07:56;2.50;;;2.17;;
8887;SDS011;4480;52.370;9.748;2023-08-06T12:10:26;2.50;;;2.30;;
8887;SDS011;4480;52.370;9.748;2023-08-06T12:12:54;2.37;;;2.13;;
8887;SDS011;4480;52.370;9.748;2023-08-06T12:15:21;3.00;;;2.20;;
8887;SDS011;4480;52.370;9.748;2023-08-06T12:17:48;2.83;;;2.63;;
8887;SDS011;4480;52.370;9.748;2023-08-06T12:20:16;3.03;;;2.40;;
8887;SDS011;4480;52.370;9.748;2023-08-06T12:22:42;3.70;;;2.50;;
8887;SDS011;4480;52.370;9.748;2023-08-06T12:25:11;3.13;;;2.87;;
8887;SDS011;4480;52.370;9.748;2023-08-06T12:27:40;2.63;;;2.43;;
8887;SDS011;4480;52.370;9.748;2023-08-06T12:30:08;2.33;;;2.13;;
8887;SDS011;4480;52.370;9.748;2023-08-06T12:32:36;2.67;;;2.20;;
8887;SDS011;4480;52.370;9.748;2023-08-06T12:35:03;2.07;;;1.87;;
8887;SDS011;4480;52.370;9.748;2023-08-06T12:37:32;2.47;;;2.10;;
8887;SDS011;4480;52.370;9.748;2023-08-06T12:39:59;2.50;;;2.00;;
8887;SDS011;4480;52.370;9.748;2023-08-06T12:42:26;2.83;;;2.40;;
8887;SDS011;4480;52.370;9.748;2023-08-06T12:44:54;3.80;;;2.13;;
8887;SDS011;4480;52.370;9.748;2023-08-06T12:47:21;2.33;;;2.13;;
8887;SDS011;4480;52.370;9.748;2023-08-06T12:49:48;2.27;;;2.10;;
8887;SDS011;4480;52.370;9.748;2023-08-06T12:52:15;3.60;;;3.00;;
8887;SDS011;4480;52.370;9.748;2023-08-06T12:54:44;3.53;;;2.53;;
8887;SDS011;4480;52.370;9.748;2023-08-06T12:57:11;2.93;;;2.37;;
8887;SDS011;4480;52.370;9.748;2023-08-06T12:59:39;2.80;;;2.50;;
8887;SDS011;4480;52.370;9.748;2023-08-06T13:02:07;2.40;;;2.20;;
8887;SDS011;4480;52.370;9.748;2023-08-06T13:04:34;4.23;;;2.80;;
8887;SDS011;4480;52.370;9.748;2023-08-06T13:07:00;3.00;;;2.47;;
8887;SDS011;4480;52.370;9.748;2023-08-06T13:09:27;3.73;;;2.63;;
8887;SDS011;4480;52.370;9.748;2023-08-06T13:11:55;3.30;;;2.40;;
8887;SDS011;4480;52.370;9.748;2023-08-06T13:14:23;6.70;;;2.57;;
8887;SDS011;4480;52.370;9.748;2023-08-06T13:16:50;2.60;;;2.40;;
8887;SDS011;4480;52.370;9.748;2023-08-06T13:19:18;3.50;;;2.60;;
8887;SDS011;4480;52.370;9.748;2023-08-06T13:24:31;2.50;;;2.30;;
8887;SDS011;4480;52.370;9.748;2023-08-06T13:26:58;3.80;;;2.77;;
8887;SDS011;4480;52.370;9.748;2023-08-06T13:29:25;3.33;;;3.03;;
8887;SDS011;4480;52.370;9.748;2023-08-06T13:31:53;3.20;;;2.90;;
8887;SDS011;4480;52.370;9.748;2023-08-06T13:34:21;3.20;;;2.60;;
8887;SDS011;4480;52.370;9.748;2023-08-06T13:36:48;3.60;;;2.50;;
8887;SDS011;4480;52.370;9.748;2023-08-06T13:39:15;2.93;;;2.50;;
8887;SDS011;4480;52.370;9.748;2023-08-06T13:41:42;2.90;;;2.60;;
8887;SDS011;4480;52.370;9.748;2023-08-06T13:44:09;2.77;;;2.40;;
8887;SDS011;4480;52.370;9.748;2023-08-06T13:46:39;2.40;;;2.20;;
8887;SDS011;4480;52.370;9.748;2023-08-06T13:49:05;3.27;;;2.37;;
8887;SDS011;4480;52.370;9.748;2023-08-06T13:51:34;2.40;;;2.20;;
8887;SDS011;4480;52.370;9.748;2023-08-06T13:54:01;3.83;;;2.70;;
8887;SDS011;4480;52.370;9.748;2023-08-06T13:56:28;3.00;;;2.20;;
8887;SDS011;4480;52.370;9.748;2023-08-06T13:58:54;2.40;;;2.17;;
8887;SDS011;4480;52.370;9.748;2023-08-06T14:01:21;2.63;;;2.43;;
8887;SDS011;4480;52.370;9.748;2023-08-06T14:03:48;3.03;;;2.73;;
8887;SDS011;4480;52.370;9.748;2023-08-06T14:06:15;2.77;;;2.17;;
8887;SDS011;4480;52.370;9.748;2023-08-06T14:08:43;2.37;;;2.10;;
8887;SDS011;4480;52.370;9.748;2023-08-06T14:11:10;2.53;;;2.33;;
8887;SDS011;4480;52.370;9.748;2023-08-06T14:13:36;2.63;;;2.33;;
8887;SDS011;4480;52.370;9.748;2023-08-06T14:16:03;2.60;;;2.40;;
8887;SDS011;4480;52.370;9.748;2023-08-06T14:18:30;2.73;;;2.33;;
8887;SDS011;4480;52.370;9.748;2023-08-06T14:20:57;2.90;;;2.47;;
8887;SDS011;4480;52.370;9.748;2023-08-06T14:23:23;2.60;;;2.37;;
8887;SDS011;4480;52.370;9.748;2023-08-06T14:25:51;3.17;;;2.53;;
8887;SDS011;4480;52.370;9.748;2023-08-06T14:28:18;3.03;;;2.60;;
8887;SDS011;4480;52.370;9.748;2023-08-06T14:30:45;3.13;;;2.53;;
8887;SDS011;4480;52.370;9.748;2023-08-06T14:33:12;4.10;;;3.10;;
8887;SDS011;4480;52.370;9.748;2023-08-06T14:35:39;5.30;;;2.70;;
8887;SDS011;4480;52.370;9.748;2023-08-06T14:38:05;3.03;;;2.77;;
8887;SDS011;4480;52.370;9.748;2023-08-06T14:40:32;2.80;;;2.60;;
8887;SDS011;4480;52.370;9.748;2023-08-06T14:43:04;3.30;;;2.70;;
8887;SDS011;4480;52.370;9.748;2023-08-06T14:45:32;3.20;;;3.00;;
8887;SDS011;4480;52.370;9.748;2023-08-06T14:47:58;5.23;;;3.10;;
8887;SDS011;4480;52.370;9.748;2023-08-06T14:50:25;2.60;;;2.40;;
8887;SDS011;4480;52.370;9.748;2023-08-06T14:52:52;4.40;;;3.60;;
8887;SDS011;4480;52.370;9.748;2023-08-06T14:55:23;3.83;;;3.43;;
8887;SDS011;4480;52.370;9.748;2023-08-06T14:57:50;4.00;;;3.60;;
8887;SDS011;4480;52.370;9.748;2023-08-06T15:00:19;4.30;;;3.90;;
8887;SDS011;4480;52.370;9.748;2023-08-06T15:02:46;7.07;;;5.10;;
8887;SDS011;4480;52.370;9.748;2023-08-06T15:05:13;6.17;;;5.20;;
8887;SDS011;4480;52.370;9.748;2023-08-06T15:07:40;5.60;;;4.30;;
8887;SDS011;4480;52.370;9.748;2023-08-06T15:10:07;6.07;;;4.40;;
8887;SDS011;4480;52.370;9.748;2023-08-06T15:12:34;4.70;;;4.00;;
8887;SDS011;4480;52.370;9.748;2023-08-06T15:15:01;3.90;;;3.50;;